createdAt,value
2022-10-28T00:00:53.529Z,0.00
2022-10-28T00:01:53.614Z,0.00
2022-10-28T00:02:53.810Z,0.00
2022-10-28T00:03:53.518Z,0.00
2022-10-28T00:04:53.482Z,0.00
2022-10-28T00:05:53.478Z,0.00
2022-10-28T00:06:53.460Z,0.00
2022-10-28T00:07:53.716Z,0.00
2022-10-28T00:08:53.438Z,0.00
2022-10-28T00:09:53.432Z,0.00
2022-10-28T00:10:53.417Z,0.00
2022-10-28T00:11:53.409Z,0.00
2022-10-28T00:12:53.427Z,0.00
2022-10-28T00:13:53.394Z,0.00
2022-10-28T00:14:53.373Z,0.00
2022-10-28T00:15:53.365Z,0.00
2022-10-28T00:16:53.351Z,0.00
2022-10-28T00:17:53.494Z,0.00
2022-10-28T00:18:53.330Z,0.00
2022-10-28T00:19:53.335Z,0.00
2022-10-28T00:20:53.310Z,0.00
2022-10-28T00:21:53.296Z,0.00
2022-10-28T00:22:53.357Z,0.00
2022-10-28T00:23:53.278Z,0.00
2022-10-28T00:24:53.264Z,0.00
2022-10-28T00:25:53.253Z,0.00
2022-10-28T00:26:53.244Z,0.00
2022-10-28T00:27:53.468Z,0.00
2022-10-28T00:28:53.224Z,0.00
2022-10-28T00:29:53.208Z,0.00
2022-10-28T00:30:53.200Z,0.00
2022-10-28T00:31:53.189Z,0.00
2022-10-28T00:32:53.586Z,0.00
2022-10-28T00:33:53.164Z,0.00
2022-10-28T00:34:53.156Z,0.00
2022-10-28T00:35:53.158Z,0.00
2022-10-28T00:36:53.134Z,0.00
2022-10-28T00:37:53.134Z,0.00
2022-10-28T00:38:53.112Z,0.00
2022-10-28T00:39:53.100Z,0.00
2022-10-28T00:40:53.091Z,0.00
2022-10-28T00:41:53.078Z,0.00
2022-10-28T00:42:53.424Z,0.00
2022-10-28T00:44:00.943Z,0.00
2022-10-28T00:44:53.050Z,0.00
2022-10-28T00:45:53.037Z,0.00
2022-10-28T00:46:53.027Z,0.00
2022-10-28T00:47:53.391Z,0.00
2022-10-28T00:48:53.008Z,0.00
2022-10-28T00:49:52.991Z,0.00
2022-10-28T00:50:52.980Z,0.00
2022-10-28T00:51:52.984Z,0.00
2022-10-28T00:52:52.976Z,0.00
2022-10-28T00:53:52.950Z,0.00
2022-10-28T00:54:52.941Z,0.00
2022-10-28T00:55:52.928Z,0.00
2022-10-28T00:56:52.914Z,0.00
2022-10-28T00:57:53.218Z,0.00
2022-10-28T00:58:52.894Z,0.00
2022-10-28T00:59:52.885Z,0.00
2022-10-28T01:00:52.872Z,0.00
2022-10-28T01:01:53.039Z,0.00
2022-10-28T01:02:52.858Z,0.00
2022-10-28T01:03:52.838Z,0.00
2022-10-28T01:04:52.831Z,0.00
2022-10-28T01:05:52.815Z,0.00
2022-10-28T01:06:52.805Z,0.00
2022-10-28T01:07:53.234Z,0.00
2022-10-28T01:08:57.424Z,0.00
2022-10-28T01:09:53.775Z,0.00
2022-10-28T01:10:52.772Z,0.00
2022-10-28T01:11:52.750Z,0.00
2022-10-28T01:12:53.059Z,0.00
2022-10-28T01:13:52.728Z,0.00
2022-10-28T01:14:52.720Z,0.00
2022-10-28T01:15:52.706Z,0.00
2022-10-28T01:16:52.695Z,0.00
2022-10-28T01:17:52.693Z,0.00
2022-10-28T01:18:52.675Z,0.00
2022-10-28T01:19:52.662Z,0.00
2022-10-28T01:20:52.655Z,0.00
2022-10-28T01:21:52.649Z,0.00
2022-10-28T01:22:52.940Z,0.00
2022-10-28T01:23:52.638Z,0.00
2022-10-28T01:24:52.612Z,0.00
2022-10-28T01:25:52.597Z,0.00
2022-10-28T01:26:52.599Z,0.00
2022-10-28T01:27:52.577Z,0.00
2022-10-28T01:28:52.571Z,0.00
2022-10-28T01:29:52.552Z,0.00
2022-10-28T01:30:52.544Z,0.00
2022-10-28T01:31:52.528Z,0.00
2022-10-28T01:32:52.965Z,0.00
2022-10-28T01:33:52.510Z,0.00
2022-10-28T01:34:52.502Z,0.00
2022-10-28T01:35:52.493Z,0.00
2022-10-28T01:36:52.477Z,0.00
2022-10-28T01:37:52.856Z,0.00
2022-10-28T01:38:52.458Z,0.00
2022-10-28T01:39:52.459Z,0.00
2022-10-28T01:40:52.434Z,0.00
2022-10-28T01:41:52.421Z,0.00
2022-10-28T01:42:52.428Z,0.00
2022-10-28T01:43:52.401Z,0.00
2022-10-28T01:44:52.390Z,0.00
2022-10-28T01:45:52.379Z,0.00
2022-10-28T01:46:52.509Z,0.00
2022-10-28T01:47:52.696Z,0.00
2022-10-28T01:48:52.348Z,0.00
2022-10-28T01:49:52.339Z,0.00
2022-10-28T01:50:52.326Z,0.00
2022-10-28T01:51:52.634Z,0.00
2022-10-28T01:52:52.607Z,0.00
2022-10-28T01:53:52.292Z,0.00
2022-10-28T01:54:52.282Z,0.00
2022-10-28T01:55:52.292Z,0.00
2022-10-28T01:56:52.268Z,0.00
2022-10-28T01:57:52.248Z,0.00
2022-10-28T01:58:52.239Z,0.00
2022-10-28T01:59:52.225Z,0.00
2022-10-28T02:00:52.265Z,0.00
2022-10-28T02:01:52.327Z,0.00
2022-10-28T02:02:52.622Z,0.00
2022-10-28T02:03:52.182Z,0.00
2022-10-28T02:04:52.179Z,0.00
2022-10-28T02:05:52.161Z,0.00
2022-10-28T02:06:52.163Z,0.00
2022-10-28T02:07:52.140Z,0.00
2022-10-28T02:08:52.128Z,0.00
2022-10-28T02:09:52.116Z,0.00
2022-10-28T02:10:52.109Z,0.00
2022-10-28T02:11:52.129Z,0.00
2022-10-28T02:12:52.427Z,0.00
2022-10-28T02:13:52.073Z,0.00
2022-10-28T02:14:52.064Z,0.00
2022-10-28T02:15:52.051Z,0.00
2022-10-28T02:16:52.051Z,0.00
2022-10-28T02:17:52.342Z,0.00
2022-10-28T02:18:52.025Z,0.00
2022-10-28T02:19:52.008Z,0.00
2022-10-28T02:20:51.996Z,0.00
2022-10-28T02:21:52.000Z,0.00
2022-10-28T02:22:51.975Z,0.00
2022-10-28T02:23:51.963Z,0.00
2022-10-28T02:24:51.956Z,0.00
2022-10-28T02:25:51.942Z,0.00
2022-10-28T02:26:51.944Z,0.00
2022-10-28T02:27:52.393Z,0.00
2022-10-28T02:28:51.913Z,0.00
2022-10-28T02:29:51.899Z,0.00
2022-10-28T02:30:51.888Z,0.00
2022-10-28T02:31:51.894Z,0.00
2022-10-28T02:32:52.116Z,0.00
2022-10-28T02:33:51.854Z,0.00
2022-10-28T02:34:51.844Z,0.00
2022-10-28T02:35:51.833Z,0.00
2022-10-28T02:36:51.833Z,0.00
2022-10-28T02:37:51.811Z,0.00
2022-10-28T02:38:51.801Z,0.00
2022-10-28T02:39:51.790Z,0.00
2022-10-28T02:41:51.777Z,0.00
2022-10-28T02:42:51.957Z,0.00
2022-10-28T02:43:51.770Z,0.00
2022-10-28T02:44:51.734Z,0.00
2022-10-28T02:45:51.731Z,0.00
2022-10-28T02:46:51.726Z,0.00
2022-10-28T02:47:51.699Z,0.00
2022-10-28T02:48:51.692Z,0.00
2022-10-28T02:49:51.705Z,0.00
2022-10-28T02:50:51.673Z,0.00
2022-10-28T02:51:51.669Z,0.00
2022-10-28T02:52:51.804Z,0.00
2022-10-28T02:53:51.634Z,0.00
2022-10-28T02:54:51.625Z,0.00
2022-10-28T02:55:51.613Z,0.00
2022-10-28T02:56:51.613Z,0.00
2022-10-28T02:57:51.937Z,0.00
2022-10-28T02:58:51.585Z,0.00
2022-10-28T02:59:51.585Z,0.00
2022-10-28T03:00:51.633Z,0.00
2022-10-28T03:01:51.669Z,0.00
2022-10-28T03:02:51.541Z,0.00
2022-10-28T03:03:51.526Z,0.00
2022-10-28T03:04:51.517Z,0.00
2022-10-28T03:05:51.505Z,0.00
2022-10-28T03:06:51.507Z,0.00
2022-10-28T03:07:51.650Z,0.00
2022-10-28T03:08:51.477Z,0.00
2022-10-28T03:09:51.462Z,0.00
2022-10-28T03:10:51.471Z,0.00
2022-10-28T03:11:51.458Z,0.00
2022-10-28T03:12:51.432Z,0.00
2022-10-28T03:13:51.419Z,0.00
2022-10-28T03:14:51.406Z,0.00
2022-10-28T03:15:51.411Z,0.00
2022-10-28T03:16:51.395Z,0.00
2022-10-28T03:17:51.829Z,0.00
2022-10-28T03:18:51.366Z,0.00
2022-10-28T03:19:51.353Z,0.00
2022-10-28T03:20:54.274Z,0.00
2022-10-28T03:21:52.341Z,0.00
2022-10-28T03:22:51.830Z,0.00
2022-10-28T03:23:51.311Z,0.00
2022-10-28T03:24:51.300Z,0.00
2022-10-28T03:25:51.289Z,0.00
2022-10-28T03:26:51.277Z,0.00
2022-10-28T03:27:51.283Z,0.00
2022-10-28T03:28:51.256Z,0.00
2022-10-28T03:29:51.243Z,0.00
2022-10-28T03:30:51.234Z,0.00
2022-10-28T03:31:51.239Z,0.00
2022-10-28T03:32:51.601Z,0.00
2022-10-28T03:33:51.199Z,0.00
2022-10-28T03:34:51.189Z,0.00
2022-10-28T03:35:51.178Z,0.00
2022-10-28T03:36:51.173Z,0.00
2022-10-28T03:37:51.168Z,0.00
2022-10-28T03:38:51.146Z,0.00
2022-10-28T03:39:51.133Z,0.00
2022-10-28T03:40:51.124Z,0.00
2022-10-28T03:41:51.111Z,0.00
2022-10-28T03:42:51.471Z,0.00
2022-10-28T03:43:51.097Z,0.00
2022-10-28T03:44:51.082Z,0.00
2022-10-28T03:45:51.068Z,0.00
2022-10-28T03:46:51.056Z,0.00
2022-10-28T03:47:51.382Z,0.00
2022-10-28T03:48:51.036Z,0.00
2022-10-28T03:49:51.023Z,0.00
2022-10-28T03:50:51.015Z,0.00
2022-10-28T03:51:51.001Z,0.00
2022-10-28T03:52:51.005Z,0.00
2022-10-28T03:53:50.980Z,0.00
2022-10-28T03:54:50.970Z,0.00
2022-10-28T03:55:50.960Z,0.00
2022-10-28T03:56:50.958Z,0.00
2022-10-28T03:57:51.196Z,0.00
2022-10-28T03:59:50.913Z,0.00
2022-10-28T04:00:50.977Z,0.00
2022-10-28T04:01:51.113Z,0.00
2022-10-28T04:02:51.151Z,0.00
2022-10-28T04:03:51.021Z,0.00
2022-10-28T04:04:50.864Z,0.00
2022-10-28T04:05:50.850Z,0.00
2022-10-28T04:06:51.031Z,0.00
2022-10-28T04:07:50.829Z,0.00
2022-10-28T04:08:50.822Z,0.00
2022-10-28T04:09:50.807Z,0.00
2022-10-28T04:10:50.799Z,0.00
2022-10-28T04:11:50.793Z,0.00
2022-10-28T04:12:51.035Z,0.00
2022-10-28T04:13:50.762Z,0.00
2022-10-28T04:14:50.751Z,0.00
2022-10-28T04:15:50.740Z,0.00
2022-10-28T04:16:50.741Z,0.00
2022-10-28T04:17:50.723Z,0.00
2022-10-28T04:18:50.707Z,0.00
2022-10-28T04:19:50.722Z,0.00
2022-10-28T04:20:50.686Z,0.00
2022-10-28T04:21:50.686Z,0.00
2022-10-28T04:22:54.552Z,0.00
2022-10-28T04:23:51.653Z,0.00
2022-10-28T04:24:50.644Z,0.00
2022-10-28T04:25:50.632Z,0.00
2022-10-28T04:26:50.629Z,0.00
2022-10-28T04:27:50.899Z,0.00
2022-10-28T04:28:50.600Z,0.00
2022-10-28T04:29:50.589Z,0.00
2022-10-28T04:30:50.576Z,0.00
2022-10-28T04:31:52.215Z,0.00
2022-10-28T04:32:50.556Z,0.00
2022-10-28T04:33:50.546Z,0.00
2022-10-28T04:34:50.534Z,0.00
2022-10-28T04:35:50.538Z,0.00
2022-10-28T04:36:50.519Z,0.00
2022-10-28T04:37:50.773Z,0.00
2022-10-28T04:38:50.489Z,0.00
2022-10-28T04:39:50.487Z,0.00
2022-10-28T04:40:50.472Z,0.00
2022-10-28T04:41:50.468Z,0.00
2022-10-28T04:42:50.620Z,0.00
2022-10-28T04:43:50.439Z,0.00
2022-10-28T04:44:50.423Z,0.00
2022-10-28T04:45:50.413Z,0.00
2022-10-28T04:46:50.414Z,0.00
2022-10-28T04:47:50.393Z,0.00
2022-10-28T04:48:50.385Z,0.00
2022-10-28T04:49:50.371Z,0.00
2022-10-28T04:50:50.362Z,0.00
2022-10-28T04:51:50.482Z,0.00
2022-10-28T04:52:50.583Z,0.00
2022-10-28T04:53:50.333Z,0.00
2022-10-28T04:54:50.314Z,0.00
2022-10-28T04:55:50.305Z,0.00
2022-10-28T04:56:50.300Z,0.00
2022-10-28T04:57:50.282Z,0.00
2022-10-28T04:58:50.273Z,0.00
2022-10-28T04:59:50.261Z,0.00
2022-10-28T05:00:50.249Z,0.00
2022-10-28T05:01:50.402Z,0.00
2022-10-28T05:02:50.235Z,0.00
2022-10-28T05:03:50.218Z,0.00
2022-10-28T05:04:50.203Z,0.00
2022-10-28T05:05:50.194Z,0.00
2022-10-28T05:06:50.215Z,0.00
2022-10-28T05:07:50.212Z,0.00
2022-10-28T05:08:50.159Z,0.00
2022-10-28T05:09:50.151Z,0.00
2022-10-28T05:10:50.141Z,0.00
2022-10-28T05:11:50.143Z,0.00
2022-10-28T05:12:50.130Z,0.00
2022-10-28T05:13:50.105Z,0.00
2022-10-28T05:14:52.483Z,0.00
2022-10-28T05:15:50.084Z,0.00
2022-10-28T05:16:50.081Z,0.00
2022-10-28T05:17:50.273Z,0.00
2022-10-28T05:18:50.051Z,0.00
2022-10-28T05:19:50.043Z,0.00
2022-10-28T05:20:50.029Z,4.00
2022-10-28T05:21:50.034Z,0.00
2022-10-28T05:22:50.116Z,4.00
2022-10-28T05:23:50.048Z,0.00
2022-10-28T05:24:49.985Z,4.00
2022-10-28T05:25:49.973Z,0.00
2022-10-28T05:26:49.973Z,4.00
2022-10-28T05:27:49.953Z,4.00
2022-10-28T05:28:49.938Z,4.00
2022-10-28T05:29:49.928Z,4.00
2022-10-28T05:30:49.918Z,4.00
2022-10-28T05:31:49.926Z,8.00
2022-10-28T05:32:52.885Z,8.00
2022-10-28T05:33:50.889Z,12.00
2022-10-28T05:34:49.887Z,16.00
2022-10-28T05:35:49.862Z,16.00
2022-10-28T05:36:49.862Z,20.00
2022-10-28T05:37:49.839Z,24.00
2022-10-28T05:38:49.828Z,24.00
2022-10-28T05:39:49.839Z,28.00
2022-10-28T05:40:49.806Z,36.00
2022-10-28T05:41:49.815Z,40.00
2022-10-28T05:42:49.785Z,44.00
2022-10-28T05:43:49.783Z,52.00
2022-10-28T05:44:49.761Z,60.00
2022-10-28T05:45:49.753Z,64.00
2022-10-28T05:46:49.753Z,72.00
2022-10-28T05:47:49.728Z,84.00
2022-10-28T05:48:49.723Z,92.00
2022-10-28T05:49:49.712Z,100.00
2022-10-28T05:50:49.694Z,112.00
2022-10-28T05:51:49.695Z,124.00
2022-10-28T05:52:49.675Z,132.00
2022-10-28T05:53:49.667Z,148.00
2022-10-28T05:54:49.653Z,164.00
2022-10-28T05:55:49.660Z,184.00
2022-10-28T05:56:49.638Z,200.00
2022-10-28T05:57:49.623Z,220.00
2022-10-28T05:59:49.597Z,264.00
2022-10-28T06:00:49.585Z,284.00
2022-10-28T06:01:49.653Z,300.00
2022-10-28T06:02:49.565Z,316.00
2022-10-28T06:03:49.572Z,328.00
2022-10-28T06:04:49.542Z,344.00
2022-10-28T06:05:49.532Z,356.00
2022-10-28T06:06:49.527Z,364.00
2022-10-28T06:07:49.512Z,372.00
2022-10-28T06:08:49.498Z,376.00
2022-10-28T06:09:49.486Z,388.00
2022-10-28T06:10:48.508Z,400.00
2022-10-28T06:11:47.966Z,412.00
2022-10-28T06:12:47.918Z,432.00
2022-10-28T06:13:47.909Z,444.00
2022-10-28T06:14:47.898Z,456.00
2022-10-28T06:15:47.889Z,472.00
2022-10-28T06:16:47.888Z,500.00
2022-10-28T06:17:47.869Z,536.00
2022-10-28T06:18:47.860Z,588.00
2022-10-28T06:19:47.850Z,640.00
2022-10-28T06:20:47.837Z,704.00
2022-10-28T06:21:47.887Z,796.00
2022-10-28T06:22:47.818Z,888.00
2022-10-28T06:23:47.808Z,912.00
2022-10-28T06:24:47.800Z,956.00
2022-10-28T06:25:47.837Z,1096.00
2022-10-28T06:26:47.786Z,1284.00
2022-10-28T06:27:47.787Z,1512.00
2022-10-28T06:28:47.758Z,1788.00
2022-10-28T06:29:47.748Z,2068.00
2022-10-28T06:30:47.738Z,2180.00
2022-10-28T06:31:47.739Z,1716.00
2022-10-28T06:32:47.727Z,1220.00
2022-10-28T06:33:47.707Z,1164.00
2022-10-28T06:34:47.698Z,1184.00
2022-10-28T06:35:47.694Z,1264.00
2022-10-28T06:36:47.686Z,1612.00
2022-10-28T06:37:47.668Z,1672.00
2022-10-28T06:38:47.656Z,1552.00
2022-10-28T06:39:47.653Z,1376.00
2022-10-28T06:40:50.250Z,1424.00
2022-10-28T06:41:47.639Z,1916.00
2022-10-28T06:42:47.615Z,1908.00
2022-10-28T06:43:47.612Z,2344.00
2022-10-28T06:44:47.617Z,2268.00
2022-10-28T06:45:47.597Z,2196.00
2022-10-28T06:46:49.104Z,3464.00
2022-10-28T06:47:49.082Z,4988.00
2022-10-28T06:48:49.068Z,4976.00
2022-10-28T06:49:49.083Z,3840.00
2022-10-28T06:50:49.050Z,2608.00
2022-10-28T06:51:49.054Z,2600.00
2022-10-28T06:52:49.041Z,2872.00
2022-10-28T06:53:49.053Z,2988.00
2022-10-28T06:54:49.007Z,3192.00
2022-10-28T06:55:49.008Z,2860.00
2022-10-28T06:56:48.996Z,2644.00
2022-10-28T06:57:49.002Z,2572.00
2022-10-28T06:58:48.972Z,2608.00
2022-10-28T06:59:48.965Z,2760.00
2022-10-28T07:00:49.110Z,3072.00
2022-10-28T07:01:49.019Z,3140.00
2022-10-28T07:02:48.970Z,3332.00
2022-10-28T07:03:48.935Z,3596.00
2022-10-28T07:04:48.929Z,3960.00
2022-10-28T07:05:48.934Z,4368.00
2022-10-28T07:06:51.291Z,5884.00
2022-10-28T07:07:48.876Z,8636.00
2022-10-28T07:08:48.865Z,10796.00
2022-10-28T07:09:48.856Z,14272.00
2022-10-28T07:10:48.847Z,14528.00
2022-10-28T07:11:53.600Z,13472.00
2022-10-28T07:12:49.825Z,13248.00
2022-10-28T07:13:49.094Z,13124.00
2022-10-28T07:14:48.804Z,13600.00
2022-10-28T07:15:48.818Z,12640.00
2022-10-28T07:16:48.786Z,11940.00
2022-10-28T07:17:48.796Z,13084.00
2022-10-28T07:18:48.767Z,12220.00
2022-10-28T07:19:48.753Z,12792.00
2022-10-28T07:20:48.747Z,14028.00
2022-10-28T07:21:48.744Z,14072.00
2022-10-28T07:22:48.722Z,14976.00
2022-10-28T07:23:48.713Z,15104.00
2022-10-28T07:24:48.704Z,17312.00
2022-10-28T07:25:48.744Z,19360.00
2022-10-28T07:26:48.692Z,23616.00
2022-10-28T07:27:48.674Z,26176.00
2022-10-28T07:28:48.660Z,27744.00
2022-10-28T07:29:48.650Z,29344.00
2022-10-28T07:30:48.640Z,30176.00
2022-10-28T07:31:48.642Z,31168.00
2022-10-28T07:32:48.617Z,22656.00
2022-10-28T07:33:48.627Z,16480.00
2022-10-28T07:34:48.597Z,25984.00
2022-10-28T07:35:48.618Z,24352.00
2022-10-28T07:36:48.594Z,10168.00
2022-10-28T07:37:48.571Z,21312.00
2022-10-28T07:38:48.560Z,10804.00
2022-10-28T07:39:48.550Z,11472.00
2022-10-28T07:40:48.532Z,32768.00
2022-10-28T07:41:48.536Z,35040.00
2022-10-28T07:42:48.510Z,35552.00
2022-10-28T07:43:48.501Z,32128.00
2022-10-28T07:44:48.490Z,37664.00
2022-10-28T07:45:48.494Z,37984.00
2022-10-28T07:46:48.479Z,38400.00
2022-10-28T07:47:48.458Z,37184.00
2022-10-28T07:48:48.445Z,32704.00
2022-10-28T07:49:48.452Z,30304.00
2022-10-28T07:50:48.425Z,30784.00
2022-10-28T07:51:48.428Z,36192.00
2022-10-28T07:52:48.399Z,34464.00
2022-10-28T07:53:48.390Z,29728.00
2022-10-28T07:54:48.376Z,31392.00
2022-10-28T07:55:48.367Z,28032.00
2022-10-28T07:56:48.365Z,28384.00
2022-10-28T07:57:48.349Z,26304.00
2022-10-28T07:58:48.331Z,26944.00
2022-10-28T07:59:48.319Z,12292.00
2022-10-28T08:00:48.360Z,7428.00
2022-10-28T08:01:48.395Z,6752.00
2022-10-28T08:02:48.282Z,6580.00
2022-10-28T08:03:48.296Z,6828.00
2022-10-28T08:04:48.258Z,7368.00
2022-10-28T08:05:48.265Z,8432.00
2022-10-28T08:06:48.311Z,14168.00
2022-10-28T08:07:48.218Z,9408.00
2022-10-28T08:08:48.203Z,8856.00
2022-10-28T08:09:48.192Z,9860.00
2022-10-28T08:10:48.178Z,15616.00
2022-10-28T08:11:48.180Z,11328.00
2022-10-28T08:12:48.172Z,12680.00
2022-10-28T08:13:48.143Z,12992.00
2022-10-28T08:14:48.132Z,11888.00
2022-10-28T08:15:48.147Z,11404.00
2022-10-28T08:16:48.115Z,14148.00
2022-10-28T08:17:48.088Z,10516.00
2022-10-28T08:18:48.076Z,9792.00
2022-10-28T08:19:48.066Z,12584.00
2022-10-28T08:20:48.065Z,15324.00
2022-10-28T08:21:48.067Z,19712.00
2022-10-28T08:22:48.026Z,12316.00
2022-10-28T08:23:48.016Z,12168.00
2022-10-28T08:24:48.006Z,10716.00
2022-10-28T08:25:47.993Z,9212.00
2022-10-28T08:26:47.992Z,9336.00
2022-10-28T08:27:47.985Z,9808.00
2022-10-28T08:28:47.959Z,10740.00
2022-10-28T08:29:47.947Z,11340.00
2022-10-28T08:30:57.219Z,12684.00
2022-10-28T08:31:48.940Z,14252.00
2022-10-28T08:32:47.913Z,13180.00
2022-10-28T08:33:47.907Z,19424.00
2022-10-28T08:34:47.914Z,14444.00
2022-10-28T08:35:47.891Z,14204.00
2022-10-28T08:36:47.939Z,14688.00
2022-10-28T08:37:47.879Z,14792.00
2022-10-28T08:38:47.848Z,20576.00
2022-10-28T08:39:47.837Z,23712.00
2022-10-28T08:40:47.825Z,18176.00
2022-10-28T08:41:47.827Z,9148.00
2022-10-28T08:42:47.805Z,8416.00
2022-10-28T08:43:57.134Z,7940.00
2022-10-28T08:44:48.782Z,9032.00
2022-10-28T08:45:47.773Z,7392.00
2022-10-28T08:46:47.767Z,7580.00
2022-10-28T08:47:47.774Z,8000.00
2022-10-28T08:48:47.751Z,8700.00
2022-10-28T08:49:49.358Z,8904.00
2022-10-28T08:50:47.726Z,8912.00
2022-10-28T08:51:47.743Z,25312.00
2022-10-28T08:52:47.699Z,12532.00
2022-10-28T08:53:47.715Z,9900.00
2022-10-28T08:54:47.679Z,11176.00
2022-10-28T08:55:47.666Z,11404.00
2022-10-28T08:56:47.668Z,10752.00
2022-10-28T08:57:47.641Z,18368.00
2022-10-28T08:58:47.632Z,12300.00
2022-10-28T08:59:47.620Z,10308.00
2022-10-28T09:00:47.611Z,35168.00
2022-10-28T09:01:47.832Z,54144.00
2022-10-28T09:02:47.586Z,56768.00
2022-10-28T09:03:47.576Z,67328.00
2022-10-28T09:04:47.564Z,69408.00
2022-10-28T09:05:47.552Z,72128.00
2022-10-28T09:06:47.575Z,71872.00
2022-10-28T09:07:47.530Z,67296.00
2022-10-28T09:08:47.521Z,15380.00
2022-10-28T09:09:47.533Z,11056.00
2022-10-28T09:10:47.499Z,8964.00
2022-10-28T09:11:47.511Z,8464.00
2022-10-28T09:12:47.479Z,8556.00
2022-10-28T09:13:47.468Z,10012.00
2022-10-28T09:14:47.456Z,34656.00
2022-10-28T09:15:47.457Z,43520.00
2022-10-28T09:16:47.451Z,20864.00
2022-10-28T09:17:47.427Z,51712.00
2022-10-28T09:18:47.424Z,63776.00
2022-10-28T09:19:47.528Z,68928.00
2022-10-28T09:20:47.393Z,69664.00
2022-10-28T09:21:47.399Z,69856.00
2022-10-28T09:22:47.373Z,69760.00
2022-10-28T09:23:47.359Z,67520.00
2022-10-28T09:24:47.380Z,66496.00
2022-10-28T09:25:47.362Z,67360.00
2022-10-28T09:26:47.338Z,68864.00
2022-10-28T09:27:47.318Z,70464.00
2022-10-28T09:28:47.310Z,69088.00
2022-10-28T09:29:47.350Z,67232.00
2022-10-28T09:30:47.294Z,67584.00
2022-10-28T09:31:47.297Z,68672.00
2022-10-28T09:32:47.269Z,68832.00
2022-10-28T09:33:47.253Z,67552.00
2022-10-28T09:34:47.254Z,68160.00
2022-10-28T09:35:47.251Z,67296.00
2022-10-28T09:36:47.239Z,69440.00
2022-10-28T09:37:47.213Z,70368.00
2022-10-28T09:38:47.206Z,71136.00
2022-10-28T09:39:47.199Z,70464.00
2022-10-28T09:40:47.186Z,71936.00
2022-10-28T09:41:47.216Z,73056.00
2022-10-28T09:42:47.216Z,74464.00
2022-10-28T09:43:47.153Z,73952.00
2022-10-28T09:44:47.146Z,74784.00
2022-10-28T09:45:47.131Z,74624.00
2022-10-28T09:46:47.144Z,74752.00
2022-10-28T09:47:47.113Z,75104.00
2022-10-28T09:48:47.104Z,75904.00
2022-10-28T09:49:47.100Z,78816.00
2022-10-28T09:50:47.084Z,74976.00
2022-10-28T09:51:47.093Z,78144.00
2022-10-28T09:52:47.066Z,73376.00
2022-10-28T09:53:47.056Z,72960.00
2022-10-28T09:54:47.046Z,70304.00
2022-10-28T09:55:47.035Z,70496.00
2022-10-28T09:56:47.047Z,43072.00
2022-10-28T09:57:47.030Z,72608.00
2022-10-28T09:58:47.008Z,73536.00
2022-10-28T09:59:46.997Z,78720.00
2022-10-28T10:00:46.987Z,78528.00
2022-10-28T10:01:47.051Z,80960.00
2022-10-28T10:02:47.112Z,69376.00
2022-10-28T10:03:46.957Z,78688.00
2022-10-28T10:04:46.947Z,78272.00
2022-10-28T10:05:46.939Z,62144.00
2022-10-28T10:06:46.940Z,57184.00
2022-10-28T10:07:46.921Z,66624.00
2022-10-28T10:08:46.907Z,53696.00
2022-10-28T10:09:46.905Z,13520.00
2022-10-28T10:10:46.891Z,11452.00
2022-10-28T10:11:46.890Z,20896.00
2022-10-28T10:12:48.668Z,78240.00
2022-10-28T10:13:46.928Z,81824.00
2022-10-28T10:14:46.896Z,35328.00
2022-10-28T10:15:46.867Z,43968.00
2022-10-28T10:16:46.841Z,60864.00
2022-10-28T10:17:46.819Z,31968.00
2022-10-28T10:18:46.818Z,11452.00
2022-10-28T10:19:50.374Z,10052.00
2022-10-28T10:20:46.791Z,9320.00
2022-10-28T10:21:46.789Z,8984.00
2022-10-28T10:22:46.771Z,8668.00
2022-10-28T10:23:46.767Z,8368.00
2022-10-28T10:24:46.751Z,8056.00
2022-10-28T10:25:46.740Z,7964.00
2022-10-28T10:26:46.741Z,7820.00
2022-10-28T10:27:46.734Z,7720.00
2022-10-28T10:28:46.711Z,7600.00
2022-10-28T10:29:46.719Z,7460.00
2022-10-28T10:30:46.691Z,7296.00
2022-10-28T10:31:46.685Z,7172.00
2022-10-28T10:32:46.667Z,7084.00
2022-10-28T10:33:46.654Z,7128.00
2022-10-28T10:34:46.649Z,7104.00
2022-10-28T10:35:46.631Z,7112.00
2022-10-28T10:36:46.636Z,7160.00
2022-10-28T10:37:46.611Z,7468.00
2022-10-28T10:38:46.648Z,7744.00
2022-10-28T10:39:46.590Z,7572.00
2022-10-28T10:40:46.587Z,7288.00
2022-10-28T10:41:46.580Z,7072.00
2022-10-28T10:42:57.513Z,6856.00
2022-10-28T10:43:47.548Z,6660.00
2022-10-28T10:44:46.541Z,6416.00
2022-10-28T10:45:46.553Z,6252.00
2022-10-28T10:46:46.541Z,6104.00
2022-10-28T10:47:46.503Z,5972.00
2022-10-28T10:48:46.499Z,5852.00
2022-10-28T10:49:46.486Z,5776.00
2022-10-28T10:50:46.473Z,5632.00
2022-10-28T10:51:46.484Z,5564.00
2022-10-28T10:52:46.472Z,5500.00
2022-10-28T10:53:46.441Z,5396.00
2022-10-28T10:54:46.429Z,5356.00
2022-10-28T10:55:46.416Z,5336.00
2022-10-28T10:56:46.505Z,5272.00
2022-10-28T10:57:46.401Z,5232.00
2022-10-28T10:58:46.385Z,5172.00
2022-10-28T10:59:46.371Z,5068.00
2022-10-28T11:00:46.365Z,5024.00
2022-10-28T11:01:46.481Z,5012.00
2022-10-28T11:02:46.402Z,4956.00
2022-10-28T11:03:46.403Z,4884.00
2022-10-28T11:04:46.318Z,4836.00
2022-10-28T11:05:48.009Z,4808.00
2022-10-28T11:06:47.311Z,4772.00
2022-10-28T11:07:46.283Z,4736.00
2022-10-28T11:08:46.282Z,4716.00
2022-10-28T11:09:46.261Z,4644.00
2022-10-28T11:10:46.251Z,4592.00
2022-10-28T11:11:46.256Z,4592.00
2022-10-28T11:12:46.245Z,4536.00
2022-10-28T11:13:46.402Z,4500.00
2022-10-28T11:14:46.207Z,4444.00
2022-10-28T11:15:46.196Z,4408.00
2022-10-28T11:16:46.200Z,4376.00
2022-10-28T11:17:46.194Z,4332.00
2022-10-28T11:18:46.166Z,4268.00
2022-10-28T11:19:46.152Z,4244.00
2022-10-28T11:20:46.142Z,4204.00
2022-10-28T11:21:46.141Z,4212.00
2022-10-28T11:22:46.120Z,4156.00
2022-10-28T11:23:46.132Z,4096.00
2022-10-28T11:24:46.097Z,4096.00
2022-10-28T11:25:46.083Z,4064.00
2022-10-28T11:26:46.100Z,3996.00
2022-10-28T11:27:48.625Z,3956.00
2022-10-28T11:28:47.053Z,3940.00
2022-10-28T11:29:46.041Z,3888.00
2022-10-28T11:30:46.031Z,3876.00
2022-10-28T11:31:46.023Z,3828.00
2022-10-28T11:32:56.179Z,3792.00
2022-10-28T11:33:47.022Z,3784.00
2022-10-28T11:34:45.986Z,3752.00
2022-10-28T11:35:45.975Z,3748.00
2022-10-28T11:36:45.966Z,3724.00
2022-10-28T11:37:46.014Z,3696.00
2022-10-28T11:38:46.036Z,3672.00
2022-10-28T11:39:45.938Z,3628.00
2022-10-28T11:40:45.923Z,3624.00
2022-10-28T11:41:45.923Z,3608.00
2022-10-28T11:42:45.900Z,3580.00
2022-10-28T11:43:47.671Z,3548.00
2022-10-28T11:44:45.882Z,3544.00
2022-10-28T11:45:48.652Z,3504.00
2022-10-28T11:46:46.870Z,3488.00
2022-10-28T11:47:45.845Z,3456.00
2022-10-28T11:48:45.840Z,3436.00
2022-10-28T11:49:45.838Z,3424.00
2022-10-28T11:50:45.815Z,3384.00
2022-10-28T11:51:45.818Z,3356.00
2022-10-28T11:52:45.791Z,3344.00
2022-10-28T11:53:45.778Z,3332.00
2022-10-28T11:54:45.770Z,3312.00
2022-10-28T11:55:45.759Z,3312.00
2022-10-28T11:56:45.758Z,3324.00
2022-10-28T11:57:45.736Z,3252.00
2022-10-28T11:58:45.727Z,2928.00
2022-10-28T11:59:45.715Z,3024.00
2022-10-28T12:00:45.703Z,3072.00
2022-10-28T12:01:45.871Z,3324.00
2022-10-28T12:02:49.362Z,3644.00
2022-10-28T12:03:46.667Z,3368.00
2022-10-28T12:04:45.659Z,3196.00
2022-10-28T12:05:45.667Z,3240.00
2022-10-28T12:06:45.658Z,3588.00
2022-10-28T12:07:45.625Z,3860.00
2022-10-28T12:08:45.617Z,4052.00
2022-10-28T12:09:45.604Z,4072.00
2022-10-28T12:10:45.599Z,4092.00
2022-10-28T12:11:45.649Z,4256.00
2022-10-28T12:12:48.710Z,4480.00
2022-10-28T12:13:46.564Z,4860.00
2022-10-28T12:14:45.555Z,4828.00
2022-10-28T12:15:45.541Z,5156.00
2022-10-28T12:16:45.549Z,5300.00
2022-10-28T12:17:45.517Z,5100.00
2022-10-28T12:18:45.513Z,5112.00
2022-10-28T12:19:45.510Z,5136.00
2022-10-28T12:20:45.487Z,5092.00
2022-10-28T12:21:45.492Z,4592.00
2022-10-28T12:22:45.475Z,3872.00
2022-10-28T12:23:45.452Z,3648.00
2022-10-28T12:24:45.472Z,3504.00
2022-10-28T12:25:45.430Z,3392.00
2022-10-28T12:26:45.433Z,3508.00
2022-10-28T12:27:45.407Z,3188.00
2022-10-28T12:28:45.403Z,2912.00
2022-10-28T12:29:45.385Z,2892.00
2022-10-28T12:30:45.376Z,2824.00
2022-10-28T12:31:45.381Z,2868.00
2022-10-28T12:32:45.455Z,3072.00
2022-10-28T12:33:45.363Z,3108.00
2022-10-28T12:34:45.335Z,3076.00
2022-10-28T12:35:45.326Z,3092.00